sensor_id;sensor_type;location;lat;lon;timestamp;P1;durP1;ratioP1;P2;durP2;ratioP2
5937;SDS011;2994;51.220;4.412;2022-12-18T00:01:04;55.43;;;37.33;;
5937;SDS011;2994;51.220;4.412;2022-12-18T00:03:34;47.53;;;32.03;;
5937;SDS011;2994;51.220;4.412;2022-12-18T00:06:00;52.23;;;34.63;;
5937;SDS011;2994;51.220;4.412;2022-12-18T00:08:26;53.23;;;35.93;;
5937;SDS011;2994;51.220;4.412;2022-12-18T00:10:52;53.60;;;34.13;;
5937;SDS011;2994;51.220;4.412;2022-12-18T00:13:18;58.40;;;37.30;;
5937;SDS011;2994;51.220;4.412;2022-12-18T00:15:43;63.20;;;38.70;;
5937;SDS011;2994;51.220;4.412;2022-12-18T00:18:09;67.43;;;38.33;;
5937;SDS011;2994;51.220;4.412;2022-12-18T00:20:37;60.50;;;38.07;;
5937;SDS011;2994;51.220;4.412;2022-12-18T00:23:04;52.50;;;35.20;;
5937;SDS011;2994;51.220;4.412;2022-12-18T00:25:34;54.23;;;36.47;;
5937;SDS011;2994;51.220;4.412;2022-12-18T00:28:03;58.37;;;37.10;;
5937;SDS011;2994;51.220;4.412;2022-12-18T00:30:29;55.13;;;35.43;;
5937;SDS011;2994;51.220;4.412;2022-12-18T00:32:54;59.73;;;36.70;;
5937;SDS011;2994;51.220;4.412;2022-12-18T00:35:20;59.50;;;37.93;;
5937;SDS011;2994;51.220;4.412;2022-12-18T00:37:45;60.40;;;35.40;;
5937;SDS011;2994;51.220;4.412;2022-12-18T00:40:11;58.67;;;36.50;;
5937;SDS011;2994;51.220;4.412;2022-12-18T00:42:36;55.47;;;35.07;;
5937;SDS011;2994;51.220;4.412;2022-12-18T00:45:20;50.87;;;34.53;;
5937;SDS011;2994;51.220;4.412;2022-12-18T00:47:46;50.87;;;32.50;;
5937;SDS011;2994;51.220;4.412;2022-12-18T00:50:12;56.07;;;34.50;;
5937;SDS011;2994;51.220;4.412;2022-12-18T00:52:37;59.73;;;35.90;;
5937;SDS011;2994;51.220;4.412;2022-12-18T00:55:03;53.80;;;34.33;;
5937;SDS011;2994;51.220;4.412;2022-12-18T00:57:28;53.27;;;34.27;;
5937;SDS011;2994;51.220;4.412;2022-12-18T00:59:54;54.40;;;34.30;;
5937;SDS011;2994;51.220;4.412;2022-12-18T01:02:19;46.53;;;32.83;;
5937;SDS011;2994;51.220;4.412;2022-12-18T01:04:45;46.70;;;32.57;;
5937;SDS011;2994;51.220;4.412;2022-12-18T01:07:10;51.53;;;33.20;;
5937;SDS011;2994;51.220;4.412;2022-12-18T01:09:35;48.90;;;31.77;;
5937;SDS011;2994;51.220;4.412;2022-12-18T01:12:01;50.60;;;33.60;;
5937;SDS011;2994;51.220;4.412;2022-12-18T01:14:26;50.90;;;31.00;;
5937;SDS011;2994;51.220;4.412;2022-12-18T01:16:52;51.63;;;32.10;;
5937;SDS011;2994;51.220;4.412;2022-12-18T01:19:17;50.17;;;32.70;;
5937;SDS011;2994;51.220;4.412;2022-12-18T01:21:43;53.40;;;33.13;;
5937;SDS011;2994;51.220;4.412;2022-12-18T01:24:09;50.37;;;32.60;;
5937;SDS011;2994;51.220;4.412;2022-12-18T01:26:36;50.37;;;32.70;;
5937;SDS011;2994;51.220;4.412;2022-12-18T01:29:02;47.47;;;30.83;;
5937;SDS011;2994;51.220;4.412;2022-12-18T01:31:28;43.23;;;29.80;;
5937;SDS011;2994;51.220;4.412;2022-12-18T01:33:55;47.13;;;31.90;;
5937;SDS011;2994;51.220;4.412;2022-12-18T01:36:25;44.50;;;30.80;;
5937;SDS011;2994;51.220;4.412;2022-12-18T01:38:52;43.20;;;32.57;;
5937;SDS011;2994;51.220;4.412;2022-12-18T01:41:20;44.27;;;29.50;;
5937;SDS011;2994;51.220;4.412;2022-12-18T01:43:54;51.40;;;31.80;;
5937;SDS011;2994;51.220;4.412;2022-12-18T01:46:23;43.97;;;29.37;;
5937;SDS011;2994;51.220;4.412;2022-12-18T01:48:50;45.77;;;29.33;;
5937;SDS011;2994;51.220;4.412;2022-12-18T01:51:20;49.77;;;30.97;;
5937;SDS011;2994;51.220;4.412;2022-12-18T01:53:46;51.07;;;32.00;;
5937;SDS011;2994;51.220;4.412;2022-12-18T01:56:13;48.93;;;30.63;;
5937;SDS011;2994;51.220;4.412;2022-12-18T02:01:13;44.87;;;29.17;;
5937;SDS011;2994;51.220;4.412;2022-12-18T02:03:41;51.63;;;33.47;;
5937;SDS011;2994;51.220;4.412;2022-12-18T02:06:19;47.60;;;30.47;;
5937;SDS011;2994;51.220;4.412;2022-12-18T02:08:55;45.57;;;29.70;;
5937;SDS011;2994;51.220;4.412;2022-12-18T02:17:45;38.43;;;25.57;;
5937;SDS011;2994;51.220;4.412;2022-12-18T02:23:25;36.87;;;26.07;;
5937;SDS011;2994;51.220;4.412;2022-12-18T02:29:05;38.20;;;27.67;;
5937;SDS011;2994;51.220;4.412;2022-12-18T02:31:36;40.33;;;25.43;;
5937;SDS011;2994;51.220;4.412;2022-12-18T02:34:08;36.53;;;25.70;;
5937;SDS011;2994;51.220;4.412;2022-12-18T02:36:36;35.07;;;24.93;;
5937;SDS011;2994;51.220;4.412;2022-12-18T02:39:05;35.40;;;22.90;;
5937;SDS011;2994;51.220;4.412;2022-12-18T02:41:33;38.50;;;26.03;;
5937;SDS011;2994;51.220;4.412;2022-12-18T02:44:02;39.47;;;25.97;;
5937;SDS011;2994;51.220;4.412;2022-12-18T02:46:34;37.67;;;24.23;;
5937;SDS011;2994;51.220;4.412;2022-12-18T02:55:00;34.87;;;26.60;;
5937;SDS011;2994;51.220;4.412;2022-12-18T03:00:20;35.30;;;24.60;;
5937;SDS011;2994;51.220;4.412;2022-12-18T03:02:52;33.37;;;23.83;;
5937;SDS011;2994;51.220;4.412;2022-12-18T03:05:31;35.87;;;24.50;;
5937;SDS011;2994;51.220;4.412;2022-12-18T03:08:23;41.97;;;27.70;;
5937;SDS011;2994;51.220;4.412;2022-12-18T03:11:04;33.43;;;24.77;;
5937;SDS011;2994;51.220;4.412;2022-12-18T03:16:14;34.13;;;24.40;;
5937;SDS011;2994;51.220;4.412;2022-12-18T03:18:45;32.77;;;22.67;;
5937;SDS011;2994;51.220;4.412;2022-12-18T03:21:15;28.73;;;20.53;;
5937;SDS011;2994;51.220;4.412;2022-12-18T03:23:47;34.83;;;23.27;;
5937;SDS011;2994;51.220;4.412;2022-12-18T03:26:16;36.03;;;23.17;;
5937;SDS011;2994;51.220;4.412;2022-12-18T03:28:52;28.50;;;21.43;;
5937;SDS011;2994;51.220;4.412;2022-12-18T03:31:22;32.03;;;22.40;;
5937;SDS011;2994;51.220;4.412;2022-12-18T03:33:56;34.23;;;22.10;;
5937;SDS011;2994;51.220;4.412;2022-12-18T03:36:26;26.40;;;21.40;;
5937;SDS011;2994;51.220;4.412;2022-12-18T03:38:51;32.60;;;22.80;;
5937;SDS011;2994;51.220;4.412;2022-12-18T03:41:31;29.03;;;20.83;;
5937;SDS011;2994;51.220;4.412;2022-12-18T03:49:48;27.93;;;19.77;;
5937;SDS011;2994;51.220;4.412;2022-12-18T03:55:13;28.00;;;19.17;;
5937;SDS011;2994;51.220;4.412;2022-12-18T03:57:39;31.97;;;21.20;;
5937;SDS011;2994;51.220;4.412;2022-12-18T04:00:12;28.10;;;19.00;;
5937;SDS011;2994;51.220;4.412;2022-12-18T04:02:40;28.43;;;18.87;;
5937;SDS011;2994;51.220;4.412;2022-12-18T04:05:14;22.40;;;17.30;;
5937;SDS011;2994;51.220;4.412;2022-12-18T04:07:41;24.57;;;19.60;;
5937;SDS011;2994;51.220;4.412;2022-12-18T04:10:07;26.80;;;18.17;;
5937;SDS011;2994;51.220;4.412;2022-12-18T04:12:36;25.77;;;19.07;;
5937;SDS011;2994;51.220;4.412;2022-12-18T04:15:02;22.87;;;17.83;;
5937;SDS011;2994;51.220;4.412;2022-12-18T04:17:28;23.67;;;19.03;;
5937;SDS011;2994;51.220;4.412;2022-12-18T04:19:53;24.03;;;17.70;;
5937;SDS011;2994;51.220;4.412;2022-12-18T04:22:19;23.80;;;16.77;;
5937;SDS011;2994;51.220;4.412;2022-12-18T04:24:44;20.70;;;15.43;;
5937;SDS011;2994;51.220;4.412;2022-12-18T04:27:09;25.07;;;18.63;;
5937;SDS011;2994;51.220;4.412;2022-12-18T04:29:35;21.47;;;17.00;;
5937;SDS011;2994;51.220;4.412;2022-12-18T04:32:00;22.93;;;16.70;;
5937;SDS011;2994;51.220;4.412;2022-12-18T04:34:26;25.67;;;16.77;;
5937;SDS011;2994;51.220;4.412;2022-12-18T04:36:51;26.03;;;17.27;;
5937;SDS011;2994;51.220;4.412;2022-12-18T04:39:16;21.90;;;17.37;;
5937;SDS011;2994;51.220;4.412;2022-12-18T04:41:42;21.17;;;18.13;;
5937;SDS011;2994;51.220;4.412;2022-12-18T04:44:07;20.97;;;15.77;;
5937;SDS011;2994;51.220;4.412;2022-12-18T04:46:33;21.57;;;16.33;;
5937;SDS011;2994;51.220;4.412;2022-12-18T04:48:58;22.63;;;16.97;;
5937;SDS011;2994;51.220;4.412;2022-12-18T04:51:24;21.60;;;16.27;;
5937;SDS011;2994;51.220;4.412;2022-12-18T04:53:49;25.77;;;17.40;;
5937;SDS011;2994;51.220;4.412;2022-12-18T04:56:15;22.30;;;15.60;;
5937;SDS011;2994;51.220;4.412;2022-12-18T04:58:41;24.97;;;18.40;;
5937;SDS011;2994;51.220;4.412;2022-12-18T05:01:09;21.40;;;16.40;;
5937;SDS011;2994;51.220;4.412;2022-12-18T05:03:36;20.57;;;16.60;;
5937;SDS011;2994;51.220;4.412;2022-12-18T05:06:03;19.70;;;16.77;;
5937;SDS011;2994;51.220;4.412;2022-12-18T05:08:28;22.90;;;16.80;;
5937;SDS011;2994;51.220;4.412;2022-12-18T05:11:01;24.43;;;17.00;;
5937;SDS011;2994;51.220;4.412;2022-12-18T05:13:34;23.63;;;16.90;;
5937;SDS011;2994;51.220;4.412;2022-12-18T05:16:00;21.53;;;16.83;;
5937;SDS011;2994;51.220;4.412;2022-12-18T05:18:29;26.73;;;17.23;;
5937;SDS011;2994;51.220;4.412;2022-12-18T05:20:55;22.50;;;16.63;;
5937;SDS011;2994;51.220;4.412;2022-12-18T05:23:22;21.43;;;17.23;;
5937;SDS011;2994;51.220;4.412;2022-12-18T05:25:55;19.83;;;16.23;;
5937;SDS011;2994;51.220;4.412;2022-12-18T05:28:23;22.43;;;16.33;;
5937;SDS011;2994;51.220;4.412;2022-12-18T05:30:50;27.03;;;16.60;;
5937;SDS011;2994;51.220;4.412;2022-12-18T05:33:18;22.10;;;16.10;;
5937;SDS011;2994;51.220;4.412;2022-12-18T05:35:49;23.43;;;17.73;;
5937;SDS011;2994;51.220;4.412;2022-12-18T05:38:23;23.90;;;17.57;;
5937;SDS011;2994;51.220;4.412;2022-12-18T05:40:50;22.37;;;16.50;;
5937;SDS011;2994;51.220;4.412;2022-12-18T05:43:17;19.80;;;16.10;;
5937;SDS011;2994;51.220;4.412;2022-12-18T05:45:43;24.13;;;18.27;;
5937;SDS011;2994;51.220;4.412;2022-12-18T05:48:08;24.20;;;17.80;;
5937;SDS011;2994;51.220;4.412;2022-12-18T05:50:39;25.17;;;18.03;;
5937;SDS011;2994;51.220;4.412;2022-12-18T05:53:05;22.33;;;17.00;;
5937;SDS011;2994;51.220;4.412;2022-12-18T05:55:34;24.70;;;18.23;;
5937;SDS011;2994;51.220;4.412;2022-12-18T05:58:04;24.60;;;16.87;;
5937;SDS011;2994;51.220;4.412;2022-12-18T06:00:32;19.87;;;14.90;;
5937;SDS011;2994;51.220;4.412;2022-12-18T06:02:59;22.80;;;16.80;;
5937;SDS011;2994;51.220;4.412;2022-12-18T06:05:25;21.53;;;15.73;;
5937;SDS011;2994;51.220;4.412;2022-12-18T06:07:51;28.43;;;16.90;;
5937;SDS011;2994;51.220;4.412;2022-12-18T06:10:17;25.00;;;16.93;;
5937;SDS011;2994;51.220;4.412;2022-12-18T06:12:42;19.43;;;15.17;;
5937;SDS011;2994;51.220;4.412;2022-12-18T06:15:08;22.73;;;16.27;;
5937;SDS011;2994;51.220;4.412;2022-12-18T06:17:34;22.57;;;15.03;;
5937;SDS011;2994;51.220;4.412;2022-12-18T06:20:01;19.33;;;15.27;;
5937;SDS011;2994;51.220;4.412;2022-12-18T06:22:26;21.67;;;15.47;;
5937;SDS011;2994;51.220;4.412;2022-12-18T06:24:52;21.77;;;14.80;;
5937;SDS011;2994;51.220;4.412;2022-12-18T06:27:17;19.73;;;16.03;;
5937;SDS011;2994;51.220;4.412;2022-12-18T06:29:43;23.80;;;15.97;;
5937;SDS011;2994;51.220;4.412;2022-12-18T06:32:08;25.00;;;16.20;;
5937;SDS011;2994;51.220;4.412;2022-12-18T06:34:34;19.23;;;15.20;;
5937;SDS011;2994;51.220;4.412;2022-12-18T06:37:01;20.43;;;15.60;;
5937;SDS011;2994;51.220;4.412;2022-12-18T06:39:27;18.87;;;14.80;;
5937;SDS011;2994;51.220;4.412;2022-12-18T06:41:52;20.77;;;15.90;;
5937;SDS011;2994;51.220;4.412;2022-12-18T06:44:18;18.87;;;15.80;;
5937;SDS011;2994;51.220;4.412;2022-12-18T06:46:44;22.20;;;14.20;;
5937;SDS011;2994;51.220;4.412;2022-12-18T06:49:09;19.67;;;15.40;;
5937;SDS011;2994;51.220;4.412;2022-12-18T06:51:35;24.70;;;16.87;;
5937;SDS011;2994;51.220;4.412;2022-12-18T06:54:01;19.67;;;15.23;;
5937;SDS011;2994;51.220;4.412;2022-12-18T06:56:26;22.70;;;15.77;;
5937;SDS011;2994;51.220;4.412;2022-12-18T06:58:52;21.53;;;16.40;;
5937;SDS011;2994;51.220;4.412;2022-12-18T07:01:17;21.00;;;14.80;;
5937;SDS011;2994;51.220;4.412;2022-12-18T07:03:43;20.27;;;14.33;;
5937;SDS011;2994;51.220;4.412;2022-12-18T07:06:15;18.93;;;15.37;;
5937;SDS011;2994;51.220;4.412;2022-12-18T07:08:43;23.30;;;15.40;;
5937;SDS011;2994;51.220;4.412;2022-12-18T07:11:11;24.17;;;16.27;;
5937;SDS011;2994;51.220;4.412;2022-12-18T07:13:37;20.53;;;15.97;;
5937;SDS011;2994;51.220;4.412;2022-12-18T07:18:32;21.40;;;15.60;;
5937;SDS011;2994;51.220;4.412;2022-12-18T07:20:57;22.10;;;16.47;;
5937;SDS011;2994;51.220;4.412;2022-12-18T07:23:23;24.83;;;16.13;;
5937;SDS011;2994;51.220;4.412;2022-12-18T07:25:48;25.37;;;16.87;;
5937;SDS011;2994;51.220;4.412;2022-12-18T07:28:13;21.40;;;15.67;;
5937;SDS011;2994;51.220;4.412;2022-12-18T07:30:39;22.90;;;15.93;;
5937;SDS011;2994;51.220;4.412;2022-12-18T07:33:05;24.83;;;17.07;;
5937;SDS011;2994;51.220;4.412;2022-12-18T07:35:32;20.73;;;16.43;;
5937;SDS011;2994;51.220;4.412;2022-12-18T07:37:58;23.97;;;16.00;;
5937;SDS011;2994;51.220;4.412;2022-12-18T07:40:23;22.83;;;16.17;;
5937;SDS011;2994;51.220;4.412;2022-12-18T07:42:48;26.27;;;16.37;;
5937;SDS011;2994;51.220;4.412;2022-12-18T07:45:14;24.63;;;16.40;;
5937;SDS011;2994;51.220;4.412;2022-12-18T07:47:39;20.53;;;15.27;;
5937;SDS011;2994;51.220;4.412;2022-12-18T07:50:06;21.87;;;16.93;;
5937;SDS011;2994;51.220;4.412;2022-12-18T07:52:32;19.53;;;14.40;;
5937;SDS011;2994;51.220;4.412;2022-12-18T07:54:57;20.17;;;15.87;;
5937;SDS011;2994;51.220;4.412;2022-12-18T07:57:23;21.63;;;16.70;;
5937;SDS011;2994;51.220;4.412;2022-12-18T07:59:48;18.13;;;15.43;;
5937;SDS011;2994;51.220;4.412;2022-12-18T08:02:14;20.83;;;15.70;;
5937;SDS011;2994;51.220;4.412;2022-12-18T08:04:39;22.20;;;16.33;;
5937;SDS011;2994;51.220;4.412;2022-12-18T08:07:05;18.97;;;14.77;;
5937;SDS011;2994;51.220;4.412;2022-12-18T08:09:30;22.17;;;15.70;;
5937;SDS011;2994;51.220;4.412;2022-12-18T08:11:56;22.83;;;15.93;;
5937;SDS011;2994;51.220;4.412;2022-12-18T08:14:21;23.63;;;15.17;;
5937;SDS011;2994;51.220;4.412;2022-12-18T08:16:47;18.30;;;15.43;;
5937;SDS011;2994;51.220;4.412;2022-12-18T08:19:13;20.03;;;14.30;;
5937;SDS011;2994;51.220;4.412;2022-12-18T08:21:38;17.57;;;14.37;;
5937;SDS011;2994;51.220;4.412;2022-12-18T08:24:04;22.33;;;15.50;;
5937;SDS011;2994;51.220;4.412;2022-12-18T08:26:30;20.63;;;14.90;;
5937;SDS011;2994;51.220;4.412;2022-12-18T08:28:57;20.23;;;13.60;;
5937;SDS011;2994;51.220;4.412;2022-12-18T08:31:24;21.20;;;14.60;;
5937;SDS011;2994;51.220;4.412;2022-12-18T08:33:51;20.40;;;15.40;;
5937;SDS011;2994;51.220;4.412;2022-12-18T08:36:18;18.27;;;13.13;;
5937;SDS011;2994;51.220;4.412;2022-12-18T08:38:44;19.60;;;13.70;;
5937;SDS011;2994;51.220;4.412;2022-12-18T08:41:11;17.70;;;14.63;;
5937;SDS011;2994;51.220;4.412;2022-12-18T08:43:38;18.30;;;13.33;;
5937;SDS011;2994;51.220;4.412;2022-12-18T08:46:23;20.13;;;14.77;;
5937;SDS011;2994;51.220;4.412;2022-12-18T08:48:50;17.00;;;13.20;;
5937;SDS011;2994;51.220;4.412;2022-12-18T08:51:17;18.63;;;13.97;;
5937;SDS011;2994;51.220;4.412;2022-12-18T08:53:42;16.53;;;13.10;;
5937;SDS011;2994;51.220;4.412;2022-12-18T08:56:09;15.30;;;13.47;;
5937;SDS011;2994;51.220;4.412;2022-12-18T08:58:35;16.43;;;12.83;;
5937;SDS011;2994;51.220;4.412;2022-12-18T09:01:01;17.80;;;12.90;;
5937;SDS011;2994;51.220;4.412;2022-12-18T09:03:32;16.47;;;12.70;;
5937;SDS011;2994;51.220;4.412;2022-12-18T09:05:58;19.63;;;13.23;;
5937;SDS011;2994;51.220;4.412;2022-12-18T09:08:24;17.10;;;13.60;;
5937;SDS011;2994;51.220;4.412;2022-12-18T09:10:50;17.93;;;13.07;;
5937;SDS011;2994;51.220;4.412;2022-12-18T09:13:16;17.80;;;14.27;;
5937;SDS011;2994;51.220;4.412;2022-12-18T09:18:10;19.10;;;14.90;;
5937;SDS011;2994;51.220;4.412;2022-12-18T09:20:36;21.07;;;14.07;;
5937;SDS011;2994;51.220;4.412;2022-12-18T09:23:02;19.97;;;13.97;;
5937;SDS011;2994;51.220;4.412;2022-12-18T09:25:29;16.70;;;13.67;;
5937;SDS011;2994;51.220;4.412;2022-12-18T09:28:01;16.80;;;13.43;;
5937;SDS011;2994;51.220;4.412;2022-12-18T09:30:28;19.03;;;13.50;;
5937;SDS011;2994;51.220;4.412;2022-12-18T09:32:54;16.93;;;13.40;;
5937;SDS011;2994;51.220;4.412;2022-12-18T09:35:20;15.23;;;13.50;;
5937;SDS011;2994;51.220;4.412;2022-12-18T09:37:46;21.20;;;13.87;;
5937;SDS011;2994;51.220;4.412;2022-12-18T09:40:15;17.40;;;14.20;;
5937;SDS011;2994;51.220;4.412;2022-12-18T09:42:44;17.83;;;13.37;;
5937;SDS011;2994;51.220;4.412;2022-12-18T09:45:14;18.67;;;14.47;;
5937;SDS011;2994;51.220;4.412;2022-12-18T09:47:41;16.70;;;13.57;;
5937;SDS011;2994;51.220;4.412;2022-12-18T09:52:57;13.80;;;12.47;;
5937;SDS011;2994;51.220;4.412;2022-12-18T09:55:32;18.30;;;12.10;;
5937;SDS011;2994;51.220;4.412;2022-12-18T10:00:54;15.53;;;12.20;;
5937;SDS011;2994;51.220;4.412;2022-12-18T10:03:20;18.47;;;14.00;;
5937;SDS011;2994;51.220;4.412;2022-12-18T10:05:50;15.77;;;12.80;;
5937;SDS011;2994;51.220;4.412;2022-12-18T10:08:27;18.70;;;12.87;;
5937;SDS011;2994;51.220;4.412;2022-12-18T10:25:23;16.77;;;12.53;;
5937;SDS011;2994;51.220;4.412;2022-12-18T10:28:11;15.87;;;12.63;;
5937;SDS011;2994;51.220;4.412;2022-12-18T10:30:39;19.93;;;13.50;;
5937;SDS011;2994;51.220;4.412;2022-12-18T10:33:08;16.30;;;12.93;;
5937;SDS011;2994;51.220;4.412;2022-12-18T10:35:37;18.23;;;14.00;;
5937;SDS011;2994;51.220;4.412;2022-12-18T10:38:20;16.67;;;13.10;;
5937;SDS011;2994;51.220;4.412;2022-12-18T10:40:57;17.20;;;11.70;;
5937;SDS011;2994;51.220;4.412;2022-12-18T10:43:26;16.50;;;12.67;;
5937;SDS011;2994;51.220;4.412;2022-12-18T10:45:59;14.40;;;11.57;;
5937;SDS011;2994;51.220;4.412;2022-12-18T10:48:35;14.40;;;12.80;;
5937;SDS011;2994;51.220;4.412;2022-12-18T10:51:05;13.37;;;11.70;;
5937;SDS011;2994;51.220;4.412;2022-12-18T10:53:35;15.90;;;13.20;;
5937;SDS011;2994;51.220;4.412;2022-12-18T10:56:02;13.50;;;11.20;;
5937;SDS011;2994;51.220;4.412;2022-12-18T10:58:31;18.53;;;13.53;;
5937;SDS011;2994;51.220;4.412;2022-12-18T11:01:03;18.63;;;12.90;;
5937;SDS011;2994;51.220;4.412;2022-12-18T11:03:36;17.03;;;13.07;;
5937;SDS011;2994;51.220;4.412;2022-12-18T11:06:10;15.90;;;12.80;;
5937;SDS011;2994;51.220;4.412;2022-12-18T11:08:41;18.53;;;13.83;;
5937;SDS011;2994;51.220;4.412;2022-12-18T11:11:21;14.07;;;12.60;;
5937;SDS011;2994;51.220;4.412;2022-12-18T11:13:51;16.40;;;14.00;;
5937;SDS011;2994;51.220;4.412;2022-12-18T11:16:34;17.27;;;12.97;;
5937;SDS011;2994;51.220;4.412;2022-12-18T11:22:01;18.40;;;13.67;;
5937;SDS011;2994;51.220;4.412;2022-12-18T11:24:41;13.60;;;11.90;;
5937;SDS011;2994;51.220;4.412;2022-12-18T11:27:15;14.17;;;12.67;;
5937;SDS011;2994;51.220;4.412;2022-12-18T11:29:42;17.70;;;13.80;;
5937;SDS011;2994;51.220;4.412;2022-12-18T11:34:39;17.67;;;12.80;;
5937;SDS011;2994;51.220;4.412;2022-12-18T11:37:12;18.67;;;14.93;;
5937;SDS011;2994;51.220;4.412;2022-12-18T11:39:41;16.30;;;12.87;;
5937;SDS011;2994;51.220;4.412;2022-12-18T11:47:41;14.40;;;11.80;;
5937;SDS011;2994;51.220;4.412;2022-12-18T11:50:20;16.47;;;13.20;;
5937;SDS011;2994;51.220;4.412;2022-12-18T11:52:50;17.20;;;13.70;;
5937;SDS011;2994;51.220;4.412;2022-12-18T11:55:19;17.80;;;13.37;;
5937;SDS011;2994;51.220;4.412;2022-12-18T11:58:05;19.83;;;13.60;;
5937;SDS011;2994;51.220;4.412;2022-12-18T12:00:33;19.70;;;13.47;;
5937;SDS011;2994;51.220;4.412;2022-12-18T12:14:01;19.97;;;14.70;;
5937;SDS011;2994;51.220;4.412;2022-12-18T12:16:41;16.93;;;13.20;;
5937;SDS011;2994;51.220;4.412;2022-12-18T12:39:02;19.10;;;13.83;;
5937;SDS011;2994;51.220;4.412;2022-12-18T12:41:33;17.67;;;14.03;;
5937;SDS011;2994;51.220;4.412;2022-12-18T12:44:28;18.80;;;14.53;;
5937;SDS011;2994;51.220;4.412;2022-12-18T12:47:01;17.53;;;14.10;;
5937;SDS011;2994;51.220;4.412;2022-12-18T12:49:41;18.60;;;14.70;;
5937;SDS011;2994;51.220;4.412;2022-12-18T12:52:13;20.00;;;14.20;;
5937;SDS011;2994;51.220;4.412;2022-12-18T12:54:42;18.27;;;14.97;;
5937;SDS011;2994;51.220;4.412;2022-12-18T12:57:14;18.03;;;14.27;;
5937;SDS011;2994;51.220;4.412;2022-12-18T12:59:56;18.10;;;14.37;;
5937;SDS011;2994;51.220;4.412;2022-12-18T13:05:23;16.07;;;14.07;;
5937;SDS011;2994;51.220;4.412;2022-12-18T13:08:11;17.20;;;15.10;;
5937;SDS011;2994;51.220;4.412;2022-12-18T13:10:46;20.67;;;15.30;;
5937;SDS011;2994;51.220;4.412;2022-12-18T13:13:13;16.93;;;14.00;;
5937;SDS011;2994;51.220;4.412;2022-12-18T13:15:45;17.90;;;14.30;;
5937;SDS011;2994;51.220;4.412;2022-12-18T13:31:11;17.43;;;14.63;;
5937;SDS011;2994;51.220;4.412;2022-12-18T13:34:16;21.50;;;15.30;;
5937;SDS011;2994;51.220;4.412;2022-12-18T13:36:43;22.43;;;16.10;;
5937;SDS011;2994;51.220;4.412;2022-12-18T13:41:47;20.77;;;15.10;;
5937;SDS011;2994;51.220;4.412;2022-12-18T13:46:49;19.37;;;15.23;;
5937;SDS011;2994;51.220;4.412;2022-12-18T13:49:24;19.70;;;15.10;;
5937;SDS011;2994;51.220;4.412;2022-12-18T13:52:19;17.87;;;14.80;;
5937;SDS011;2994;51.220;4.412;2022-12-18T13:54:47;16.00;;;14.27;;
5937;SDS011;2994;51.220;4.412;2022-12-18T13:59:56;19.40;;;14.50;;
5937;SDS011;2994;51.220;4.412;2022-12-18T14:02:23;20.00;;;15.67;;
5937;SDS011;2994;51.220;4.412;2022-12-18T14:04:51;16.30;;;14.10;;
5937;SDS011;2994;51.220;4.412;2022-12-18T14:07:21;18.23;;;13.67;;
5937;SDS011;2994;51.220;4.412;2022-12-18T14:09:50;18.10;;;15.00;;
5937;SDS011;2994;51.220;4.412;2022-12-18T14:12:25;17.47;;;13.90;;
5937;SDS011;2994;51.220;4.412;2022-12-18T14:17:58;18.87;;;15.73;;
5937;SDS011;2994;51.220;4.412;2022-12-18T14:20:27;22.47;;;16.37;;
5937;SDS011;2994;51.220;4.412;2022-12-18T14:22:54;18.13;;;14.10;;
5937;SDS011;2994;51.220;4.412;2022-12-18T14:25:24;19.40;;;15.57;;
5937;SDS011;2994;51.220;4.412;2022-12-18T14:30:34;22.70;;;17.40;;
5937;SDS011;2994;51.220;4.412;2022-12-18T14:33:06;22.37;;;16.23;;
5937;SDS011;2994;51.220;4.412;2022-12-18T14:35:38;19.57;;;15.60;;
5937;SDS011;2994;51.220;4.412;2022-12-18T14:38:10;19.37;;;15.57;;
5937;SDS011;2994;51.220;4.412;2022-12-18T14:40:46;18.90;;;15.23;;
5937;SDS011;2994;51.220;4.412;2022-12-18T14:43:11;18.10;;;14.80;;
5937;SDS011;2994;51.220;4.412;2022-12-18T14:50:45;19.33;;;15.53;;
5937;SDS011;2994;51.220;4.412;2022-12-18T14:53:22;20.70;;;15.77;;
5937;SDS011;2994;51.220;4.412;2022-12-18T14:56:00;22.47;;;17.37;;
5937;SDS011;2994;51.220;4.412;2022-12-18T14:58:27;23.90;;;16.80;;
5937;SDS011;2994;51.220;4.412;2022-12-18T15:00:52;24.70;;;17.30;;
5937;SDS011;2994;51.220;4.412;2022-12-18T15:03:18;23.70;;;17.80;;
5937;SDS011;2994;51.220;4.412;2022-12-18T15:05:45;21.17;;;16.47;;
5937;SDS011;2994;51.220;4.412;2022-12-18T15:14:22;21.00;;;17.33;;
5937;SDS011;2994;51.220;4.412;2022-12-18T15:16:52;24.90;;;16.73;;
5937;SDS011;2994;51.220;4.412;2022-12-18T15:19:19;21.83;;;17.80;;
5937;SDS011;2994;51.220;4.412;2022-12-18T15:21:47;22.13;;;16.70;;
5937;SDS011;2994;51.220;4.412;2022-12-18T15:24:20;22.40;;;17.80;;
5937;SDS011;2994;51.220;4.412;2022-12-18T15:26:50;25.50;;;19.10;;
5937;SDS011;2994;51.220;4.412;2022-12-18T15:29:18;21.37;;;17.27;;
5937;SDS011;2994;51.220;4.412;2022-12-18T15:31:57;20.50;;;16.57;;
5937;SDS011;2994;51.220;4.412;2022-12-18T15:34:24;19.43;;;17.30;;
5937;SDS011;2994;51.220;4.412;2022-12-18T15:36:51;21.60;;;17.40;;
5937;SDS011;2994;51.220;4.412;2022-12-18T15:39:16;25.53;;;19.00;;
5937;SDS011;2994;51.220;4.412;2022-12-18T15:41:42;21.03;;;16.47;;
5937;SDS011;2994;51.220;4.412;2022-12-18T15:44:27;23.33;;;18.50;;
5937;SDS011;2994;51.220;4.412;2022-12-18T15:46:53;23.37;;;18.50;;
5937;SDS011;2994;51.220;4.412;2022-12-18T15:49:18;23.37;;;17.40;;
5937;SDS011;2994;51.220;4.412;2022-12-18T15:51:44;22.63;;;17.57;;
5937;SDS011;2994;51.220;4.412;2022-12-18T15:54:13;22.03;;;17.97;;
5937;SDS011;2994;51.220;4.412;2022-12-18T15:56:41;23.97;;;17.50;;
5937;SDS011;2994;51.220;4.412;2022-12-18T15:59:25;23.50;;;17.80;;
5937;SDS011;2994;51.220;4.412;2022-12-18T16:01:51;27.27;;;18.77;;
5937;SDS011;2994;51.220;4.412;2022-12-18T16:04:21;28.37;;;19.63;;
5937;SDS011;2994;51.220;4.412;2022-12-18T16:06:49;23.63;;;18.17;;
5937;SDS011;2994;51.220;4.412;2022-12-18T16:09:16;22.57;;;17.03;;
5937;SDS011;2994;51.220;4.412;2022-12-18T16:11:42;22.20;;;16.63;;
5937;SDS011;2994;51.220;4.412;2022-12-18T16:16:44;22.80;;;17.53;;
5937;SDS011;2994;51.220;4.412;2022-12-18T16:19:11;24.03;;;18.70;;
5937;SDS011;2994;51.220;4.412;2022-12-18T16:21:37;22.40;;;17.50;;
5937;SDS011;2994;51.220;4.412;2022-12-18T16:24:02;25.57;;;18.87;;
5937;SDS011;2994;51.220;4.412;2022-12-18T16:26:28;27.03;;;19.73;;
5937;SDS011;2994;51.220;4.412;2022-12-18T16:28:53;23.70;;;17.40;;
5937;SDS011;2994;51.220;4.412;2022-12-18T16:31:19;23.30;;;18.50;;
5937;SDS011;2994;51.220;4.412;2022-12-18T16:33:44;25.63;;;18.30;;
5937;SDS011;2994;51.220;4.412;2022-12-18T16:36:10;22.67;;;18.63;;
5937;SDS011;2994;51.220;4.412;2022-12-18T16:38:35;22.27;;;17.27;;
5937;SDS011;2994;51.220;4.412;2022-12-18T16:41:01;27.40;;;20.40;;
5937;SDS011;2994;51.220;4.412;2022-12-18T16:43:45;23.80;;;18.73;;
5937;SDS011;2994;51.220;4.412;2022-12-18T16:46:10;18.77;;;16.63;;
5937;SDS011;2994;51.220;4.412;2022-12-18T16:48:36;21.20;;;16.93;;
5937;SDS011;2994;51.220;4.412;2022-12-18T16:51:02;26.87;;;19.13;;
5937;SDS011;2994;51.220;4.412;2022-12-18T16:53:29;22.93;;;18.53;;
5937;SDS011;2994;51.220;4.412;2022-12-18T16:55:56;25.40;;;18.50;;
5937;SDS011;2994;51.220;4.412;2022-12-18T16:58:22;28.47;;;19.80;;
5937;SDS011;2994;51.220;4.412;2022-12-18T17:00:48;23.03;;;17.27;;
5937;SDS011;2994;51.220;4.412;2022-12-18T17:03:13;23.80;;;18.70;;
5937;SDS011;2994;51.220;4.412;2022-12-18T17:05:39;25.53;;;18.70;;
5937;SDS011;2994;51.220;4.412;2022-12-18T17:08:04;25.40;;;19.27;;
5937;SDS011;2994;51.220;4.412;2022-12-18T17:10:30;27.50;;;20.30;;
5937;SDS011;2994;51.220;4.412;2022-12-18T17:12:55;32.33;;;20.20;;
5937;SDS011;2994;51.220;4.412;2022-12-18T17:15:21;27.17;;;20.10;;
5937;SDS011;2994;51.220;4.412;2022-12-18T17:17:46;25.80;;;18.67;;
5937;SDS011;2994;51.220;4.412;2022-12-18T17:20:11;28.20;;;19.20;;
5937;SDS011;2994;51.220;4.412;2022-12-18T17:22:37;24.27;;;19.80;;